sensor_id;sensor_type;location;lat;lon;timestamp;P1;durP1;ratioP1;P2;durP2;ratioP2
40288;SDS011;28991;52.028;5.526;2023-04-20T00:00:48;0.40;;;0.40;;
40288;SDS011;28991;52.028;5.526;2023-04-20T00:03:14;0.50;;;0.50;;
40288;SDS011;28991;52.028;5.526;2023-04-20T00:05:42;0.70;;;0.60;;
40288;SDS011;28991;52.028;5.526;2023-04-20T00:08:07;0.40;;;0.40;;
40288;SDS011;28991;52.028;5.526;2023-04-20T00:10:33;0.50;;;0.50;;
40288;SDS011;28991;52.028;5.526;2023-04-20T00:12:58;0.73;;;0.50;;
40288;SDS011;28991;52.028;5.526;2023-04-20T00:15:24;0.60;;;0.52;;
40288;SDS011;28991;52.028;5.526;2023-04-20T00:17:50;1.05;;;0.70;;
40288;SDS011;28991;52.028;5.526;2023-04-20T00:20:16;0.50;;;0.50;;
40288;SDS011;28991;52.028;5.526;2023-04-20T00:22:42;0.40;;;0.40;;
40288;SDS011;28991;52.028;5.526;2023-04-20T00:25:08;0.50;;;0.50;;
40288;SDS011;28991;52.028;5.526;2023-04-20T00:27:33;0.75;;;0.50;;
40288;SDS011;28991;52.028;5.526;2023-04-20T00:29:59;0.50;;;0.50;;
40288;SDS011;28991;52.028;5.526;2023-04-20T00:32:24;0.50;;;0.50;;
40288;SDS011;28991;52.028;5.526;2023-04-20T00:34:52;0.73;;;0.57;;
40288;SDS011;28991;52.028;5.526;2023-04-20T00:37:17;0.40;;;0.40;;
40288;SDS011;28991;52.028;5.526;2023-04-20T00:39:43;0.40;;;0.40;;
40288;SDS011;28991;52.028;5.526;2023-04-20T00:42:09;0.52;;;0.45;;
40288;SDS011;28991;52.028;5.526;2023-04-20T00:44:34;0.50;;;0.50;;
40288;SDS011;28991;52.028;5.526;2023-04-20T00:47:00;0.38;;;0.38;;
40288;SDS011;28991;52.028;5.526;2023-04-20T00:49:26;0.50;;;0.50;;
40288;SDS011;28991;52.028;5.526;2023-04-20T00:51:56;0.40;;;0.40;;
40288;SDS011;28991;52.028;5.526;2023-04-20T00:54:22;0.50;;;0.50;;
40288;SDS011;28991;52.028;5.526;2023-04-20T00:56:47;0.50;;;0.50;;
40288;SDS011;28991;52.028;5.526;2023-04-20T00:59:14;0.40;;;0.40;;
40288;SDS011;28991;52.028;5.526;2023-04-20T01:01:40;0.88;;;0.60;;
40288;SDS011;28991;52.028;5.526;2023-04-20T01:04:06;0.60;;;0.60;;
40288;SDS011;28991;52.028;5.526;2023-04-20T01:06:33;0.60;;;0.60;;
40288;SDS011;28991;52.028;5.526;2023-04-20T01:08:58;0.60;;;0.60;;
40288;SDS011;28991;52.028;5.526;2023-04-20T01:11:24;1.55;;;0.50;;
40288;SDS011;28991;52.028;5.526;2023-04-20T01:13:50;0.50;;;0.50;;
40288;SDS011;28991;52.028;5.526;2023-04-20T01:16:15;0.50;;;0.50;;
40288;SDS011;28991;52.028;5.526;2023-04-20T01:18:45;0.50;;;0.50;;
40288;SDS011;28991;52.028;5.526;2023-04-20T01:21:13;0.40;;;0.40;;
40288;SDS011;28991;52.028;5.526;2023-04-20T01:23:40;0.50;;;0.50;;
40288;SDS011;28991;52.028;5.526;2023-04-20T01:26:07;0.68;;;0.55;;
40288;SDS011;28991;52.028;5.526;2023-04-20T01:28:34;0.80;;;0.50;;
40288;SDS011;28991;52.028;5.526;2023-04-20T01:31:00;0.50;;;0.50;;
40288;SDS011;28991;52.028;5.526;2023-04-20T01:33:27;0.50;;;0.50;;
40288;SDS011;28991;52.028;5.526;2023-04-20T01:35:52;0.60;;;0.60;;
40288;SDS011;28991;52.028;5.526;2023-04-20T01:38:18;0.80;;;0.55;;
40288;SDS011;28991;52.028;5.526;2023-04-20T01:40:45;0.40;;;0.40;;
40288;SDS011;28991;52.028;5.526;2023-04-20T01:43:11;0.63;;;0.60;;
40288;SDS011;28991;52.028;5.526;2023-04-20T01:45:37;0.57;;;0.57;;
40288;SDS011;28991;52.028;5.526;2023-04-20T01:48:02;0.50;;;0.50;;
40288;SDS011;28991;52.028;5.526;2023-04-20T01:50:28;0.57;;;0.57;;
40288;SDS011;28991;52.028;5.526;2023-04-20T01:52:53;0.63;;;0.50;;
40288;SDS011;28991;52.028;5.526;2023-04-20T01:55:19;0.60;;;0.60;;
40288;SDS011;28991;52.028;5.526;2023-04-20T01:57:45;0.52;;;0.52;;
40288;SDS011;28991;52.028;5.526;2023-04-20T02:00:10;0.63;;;0.63;;
40288;SDS011;28991;52.028;5.526;2023-04-20T02:02:36;0.52;;;0.52;;
40288;SDS011;28991;52.028;5.526;2023-04-20T02:05:02;0.65;;;0.50;;
40288;SDS011;28991;52.028;5.526;2023-04-20T02:07:28;0.55;;;0.52;;
40288;SDS011;28991;52.028;5.526;2023-04-20T02:09:54;0.70;;;0.70;;
40288;SDS011;28991;52.028;5.526;2023-04-20T02:12:20;0.93;;;0.63;;
40288;SDS011;28991;52.028;5.526;2023-04-20T02:14:46;1.02;;;0.38;;
40288;SDS011;28991;52.028;5.526;2023-04-20T02:17:11;0.47;;;0.47;;
40288;SDS011;28991;52.028;5.526;2023-04-20T02:19:37;0.60;;;0.60;;
40288;SDS011;28991;52.028;5.526;2023-04-20T02:22:03;0.68;;;0.68;;
40288;SDS011;28991;52.028;5.526;2023-04-20T02:24:29;0.50;;;0.50;;
40288;SDS011;28991;52.028;5.526;2023-04-20T02:26:55;0.57;;;0.57;;
40288;SDS011;28991;52.028;5.526;2023-04-20T02:29:21;0.50;;;0.50;;
40288;SDS011;28991;52.028;5.526;2023-04-20T02:31:46;0.50;;;0.45;;
40288;SDS011;28991;52.028;5.526;2023-04-20T02:34:12;0.63;;;0.60;;
40288;SDS011;28991;52.028;5.526;2023-04-20T02:36:37;0.50;;;0.50;;
40288;SDS011;28991;52.028;5.526;2023-04-20T02:39:03;0.40;;;0.40;;
40288;SDS011;28991;52.028;5.526;2023-04-20T02:41:29;0.55;;;0.55;;
40288;SDS011;28991;52.028;5.526;2023-04-20T02:43:55;0.50;;;0.50;;
40288;SDS011;28991;52.028;5.526;2023-04-20T02:46:20;0.30;;;0.30;;
40288;SDS011;28991;52.028;5.526;2023-04-20T02:48:46;0.60;;;0.60;;
40288;SDS011;28991;52.028;5.526;2023-04-20T02:51:12;0.55;;;0.55;;
40288;SDS011;28991;52.028;5.526;2023-04-20T02:53:37;0.60;;;0.60;;
40288;SDS011;28991;52.028;5.526;2023-04-20T02:56:03;0.80;;;0.60;;
40288;SDS011;28991;52.028;5.526;2023-04-20T02:58:29;0.63;;;0.40;;
40288;SDS011;28991;52.028;5.526;2023-04-20T03:01:01;0.45;;;0.45;;
40288;SDS011;28991;52.028;5.526;2023-04-20T03:03:27;0.68;;;0.60;;
40288;SDS011;28991;52.028;5.526;2023-04-20T03:05:53;0.50;;;0.50;;
40288;SDS011;28991;52.028;5.526;2023-04-20T03:08:20;0.65;;;0.65;;
40288;SDS011;28991;52.028;5.526;2023-04-20T03:10:46;0.35;;;0.32;;
40288;SDS011;28991;52.028;5.526;2023-04-20T03:13:12;0.70;;;0.70;;
40288;SDS011;28991;52.028;5.526;2023-04-20T03:15:37;0.40;;;0.40;;
40288;SDS011;28991;52.028;5.526;2023-04-20T03:18:03;0.57;;;0.57;;
40288;SDS011;28991;52.028;5.526;2023-04-20T03:20:29;0.52;;;0.52;;
40288;SDS011;28991;52.028;5.526;2023-04-20T03:22:54;0.82;;;0.70;;
40288;SDS011;28991;52.028;5.526;2023-04-20T03:25:20;0.40;;;0.40;;
40288;SDS011;28991;52.028;5.526;2023-04-20T03:27:46;0.60;;;0.60;;
40288;SDS011;28991;52.028;5.526;2023-04-20T03:30:12;0.45;;;0.45;;
40288;SDS011;28991;52.028;5.526;2023-04-20T03:32:39;0.43;;;0.43;;
40288;SDS011;28991;52.028;5.526;2023-04-20T03:35:05;0.68;;;0.50;;
40288;SDS011;28991;52.028;5.526;2023-04-20T03:37:31;0.57;;;0.57;;
40288;SDS011;28991;52.028;5.526;2023-04-20T03:39:56;0.60;;;0.55;;
40288;SDS011;28991;52.028;5.526;2023-04-20T03:42:22;0.75;;;0.40;;
40288;SDS011;28991;52.028;5.526;2023-04-20T03:44:47;0.60;;;0.60;;
40288;SDS011;28991;52.028;5.526;2023-04-20T03:47:13;0.50;;;0.50;;
40288;SDS011;28991;52.028;5.526;2023-04-20T03:49:39;0.50;;;0.50;;
40288;SDS011;28991;52.028;5.526;2023-04-20T03:52:04;0.85;;;0.60;;
40288;SDS011;28991;52.028;5.526;2023-04-20T03:54:31;0.60;;;0.57;;
40288;SDS011;28991;52.028;5.526;2023-04-20T03:56:56;0.50;;;0.50;;
40288;SDS011;28991;52.028;5.526;2023-04-20T03:59:22;0.65;;;0.65;;
40288;SDS011;28991;52.028;5.526;2023-04-20T04:01:48;0.50;;;0.50;;
40288;SDS011;28991;52.028;5.526;2023-04-20T04:04:14;0.43;;;0.43;;
40288;SDS011;28991;52.028;5.526;2023-04-20T04:06:39;0.40;;;0.40;;
40288;SDS011;28991;52.028;5.526;2023-04-20T04:09:05;0.75;;;0.65;;
40288;SDS011;28991;52.028;5.526;2023-04-20T04:11:31;0.47;;;0.47;;
40288;SDS011;28991;52.028;5.526;2023-04-20T04:13:57;0.28;;;0.28;;
40288;SDS011;28991;52.028;5.526;2023-04-20T04:16:23;0.55;;;0.55;;
40288;SDS011;28991;52.028;5.526;2023-04-20T04:18:48;0.60;;;0.57;;
40288;SDS011;28991;52.028;5.526;2023-04-20T04:21:14;0.60;;;0.60;;
40288;SDS011;28991;52.028;5.526;2023-04-20T04:23:40;0.57;;;0.47;;
40288;SDS011;28991;52.028;5.526;2023-04-20T04:26:08;0.57;;;0.50;;
40288;SDS011;28991;52.028;5.526;2023-04-20T04:28:36;0.50;;;0.50;;
40288;SDS011;28991;52.028;5.526;2023-04-20T04:31:01;0.80;;;0.60;;
40288;SDS011;28991;52.028;5.526;2023-04-20T04:33:29;0.60;;;0.52;;
40288;SDS011;28991;52.028;5.526;2023-04-20T04:35:58;0.50;;;0.50;;
40288;SDS011;28991;52.028;5.526;2023-04-20T04:38:24;0.60;;;0.60;;
40288;SDS011;28991;52.028;5.526;2023-04-20T04:40:50;0.45;;;0.45;;
40288;SDS011;28991;52.028;5.526;2023-04-20T04:43:16;0.70;;;0.70;;
40288;SDS011;28991;52.028;5.526;2023-04-20T04:45:43;0.60;;;0.60;;
40288;SDS011;28991;52.028;5.526;2023-04-20T04:48:09;0.60;;;0.60;;
40288;SDS011;28991;52.028;5.526;2023-04-20T04:50:36;0.38;;;0.38;;
40288;SDS011;28991;52.028;5.526;2023-04-20T04:53:02;0.40;;;0.40;;
40288;SDS011;28991;52.028;5.526;2023-04-20T04:55:27;0.50;;;0.50;;
40288;SDS011;28991;52.028;5.526;2023-04-20T04:57:53;0.50;;;0.50;;
40288;SDS011;28991;52.028;5.526;2023-04-20T05:00:18;0.43;;;0.43;;
40288;SDS011;28991;52.028;5.526;2023-04-20T05:02:44;0.47;;;0.47;;
40288;SDS011;28991;52.028;5.526;2023-04-20T05:05:09;0.50;;;0.50;;
40288;SDS011;28991;52.028;5.526;2023-04-20T05:07:35;0.52;;;0.50;;
40288;SDS011;28991;52.028;5.526;2023-04-20T05:10:02;0.60;;;0.60;;
40288;SDS011;28991;52.028;5.526;2023-04-20T05:12:28;0.70;;;0.68;;
40288;SDS011;28991;52.028;5.526;2023-04-20T05:14:54;0.65;;;0.65;;
40288;SDS011;28991;52.028;5.526;2023-04-20T05:17:19;0.60;;;0.60;;
40288;SDS011;28991;52.028;5.526;2023-04-20T05:19:45;1.38;;;0.90;;
40288;SDS011;28991;52.028;5.526;2023-04-20T05:22:10;0.70;;;0.70;;
40288;SDS011;28991;52.028;5.526;2023-04-20T05:24:36;0.98;;;0.80;;
40288;SDS011;28991;52.028;5.526;2023-04-20T05:27:02;0.43;;;0.43;;
40288;SDS011;28991;52.028;5.526;2023-04-20T05:29:28;0.50;;;0.50;;
40288;SDS011;28991;52.028;5.526;2023-04-20T05:31:53;1.63;;;0.70;;
40288;SDS011;28991;52.028;5.526;2023-04-20T05:34:19;0.68;;;0.60;;
40288;SDS011;28991;52.028;5.526;2023-04-20T05:36:45;0.60;;;0.60;;
40288;SDS011;28991;52.028;5.526;2023-04-20T05:39:11;0.73;;;0.70;;
40288;SDS011;28991;52.028;5.526;2023-04-20T05:41:37;0.50;;;0.47;;
40288;SDS011;28991;52.028;5.526;2023-04-20T05:44:02;0.60;;;0.60;;
40288;SDS011;28991;52.028;5.526;2023-04-20T05:46:28;0.60;;;0.60;;
40288;SDS011;28991;52.028;5.526;2023-04-20T05:48:54;0.65;;;0.55;;
40288;SDS011;28991;52.028;5.526;2023-04-20T05:51:19;0.70;;;0.70;;
40288;SDS011;28991;52.028;5.526;2023-04-20T05:53:46;1.05;;;0.50;;
40288;SDS011;28991;52.028;5.526;2023-04-20T05:56:12;0.90;;;0.80;;
40288;SDS011;28991;52.028;5.526;2023-04-20T05:58:38;0.73;;;0.70;;
40288;SDS011;28991;52.028;5.526;2023-04-20T06:01:05;0.85;;;0.50;;
40288;SDS011;28991;52.028;5.526;2023-04-20T06:03:31;0.73;;;0.68;;
40288;SDS011;28991;52.028;5.526;2023-04-20T06:05:57;0.52;;;0.52;;
40288;SDS011;28991;52.028;5.526;2023-04-20T06:08:22;0.60;;;0.60;;
40288;SDS011;28991;52.028;5.526;2023-04-20T06:10:51;0.55;;;0.55;;
40288;SDS011;28991;52.028;5.526;2023-04-20T06:13:18;0.70;;;0.60;;
40288;SDS011;28991;52.028;5.526;2023-04-20T06:15:44;0.57;;;0.50;;
40288;SDS011;28991;52.028;5.526;2023-04-20T06:18:10;0.70;;;0.60;;
40288;SDS011;28991;52.028;5.526;2023-04-20T06:20:35;0.75;;;0.68;;
40288;SDS011;28991;52.028;5.526;2023-04-20T06:23:03;0.60;;;0.60;;
40288;SDS011;28991;52.028;5.526;2023-04-20T06:25:28;0.50;;;0.45;;
40288;SDS011;28991;52.028;5.526;2023-04-20T06:27:54;0.50;;;0.50;;
40288;SDS011;28991;52.028;5.526;2023-04-20T06:30:20;1.13;;;0.80;;
40288;SDS011;28991;52.028;5.526;2023-04-20T06:32:46;0.60;;;0.60;;
40288;SDS011;28991;52.028;5.526;2023-04-20T06:35:12;0.47;;;0.47;;
40288;SDS011;28991;52.028;5.526;2023-04-20T06:37:37;0.60;;;0.60;;
40288;SDS011;28991;52.028;5.526;2023-04-20T06:40:04;0.85;;;0.63;;
40288;SDS011;28991;52.028;5.526;2023-04-20T06:42:33;1.70;;;0.80;;
40288;SDS011;28991;52.028;5.526;2023-04-20T06:44:58;0.73;;;0.70;;
40288;SDS011;28991;52.028;5.526;2023-04-20T06:47:24;0.50;;;0.50;;
40288;SDS011;28991;52.028;5.526;2023-04-20T06:49:55;0.70;;;0.70;;
40288;SDS011;28991;52.028;5.526;2023-04-20T06:52:28;1.25;;;0.80;;
40288;SDS011;28991;52.028;5.526;2023-04-20T06:54:57;1.65;;;0.50;;
40288;SDS011;28991;52.028;5.526;2023-04-20T06:57:23;0.55;;;0.50;;
40288;SDS011;28991;52.028;5.526;2023-04-20T06:59:49;1.20;;;0.85;;
40288;SDS011;28991;52.028;5.526;2023-04-20T07:02:14;0.70;;;0.60;;
40288;SDS011;28991;52.028;5.526;2023-04-20T07:04:40;1.20;;;0.50;;
40288;SDS011;28991;52.028;5.526;2023-04-20T07:07:05;1.20;;;0.80;;
40288;SDS011;28991;52.028;5.526;2023-04-20T07:09:31;1.30;;;0.90;;
40288;SDS011;28991;52.028;5.526;2023-04-20T07:11:56;1.80;;;1.08;;
40288;SDS011;28991;52.028;5.526;2023-04-20T07:14:22;1.63;;;0.70;;
40288;SDS011;28991;52.028;5.526;2023-04-20T07:16:50;2.10;;;0.80;;
40288;SDS011;28991;52.028;5.526;2023-04-20T07:19:17;0.88;;;0.70;;
40288;SDS011;28991;52.028;5.526;2023-04-20T07:21:42;1.35;;;0.77;;
40288;SDS011;28991;52.028;5.526;2023-04-20T07:24:08;1.40;;;0.80;;
40288;SDS011;28991;52.028;5.526;2023-04-20T07:26:33;0.80;;;0.70;;
40288;SDS011;28991;52.028;5.526;2023-04-20T07:28:59;0.90;;;0.77;;
40288;SDS011;28991;52.028;5.526;2023-04-20T07:31:24;1.17;;;0.60;;
40288;SDS011;28991;52.028;5.526;2023-04-20T07:33:50;1.00;;;0.80;;
40288;SDS011;28991;52.028;5.526;2023-04-20T07:36:15;0.80;;;0.80;;
40288;SDS011;28991;52.028;5.526;2023-04-20T07:38:41;0.65;;;0.65;;
40288;SDS011;28991;52.028;5.526;2023-04-20T07:41:07;2.58;;;0.93;;
40288;SDS011;28991;52.028;5.526;2023-04-20T07:43:34;0.70;;;0.70;;
40288;SDS011;28991;52.028;5.526;2023-04-20T07:46:00;0.60;;;0.60;;
40288;SDS011;28991;52.028;5.526;2023-04-20T07:48:25;0.98;;;0.90;;
40288;SDS011;28991;52.028;5.526;2023-04-20T07:50:51;2.63;;;0.85;;
40288;SDS011;28991;52.028;5.526;2023-04-20T07:53:16;1.08;;;0.70;;
40288;SDS011;28991;52.028;5.526;2023-04-20T07:55:42;4.70;;;0.70;;
40288;SDS011;28991;52.028;5.526;2023-04-20T07:58:07;4.60;;;0.90;;
40288;SDS011;28991;52.028;5.526;2023-04-20T08:00:33;1.80;;;0.88;;
40288;SDS011;28991;52.028;5.526;2023-04-20T08:02:59;3.47;;;0.90;;
40288;SDS011;28991;52.028;5.526;2023-04-20T08:05:25;2.90;;;0.82;;
40288;SDS011;28991;52.028;5.526;2023-04-20T08:07:51;2.47;;;1.00;;
40288;SDS011;28991;52.028;5.526;2023-04-20T08:10:16;2.38;;;0.60;;
40288;SDS011;28991;52.028;5.526;2023-04-20T08:12:42;3.40;;;0.90;;
40288;SDS011;28991;52.028;5.526;2023-04-20T08:15:08;3.67;;;1.23;;
40288;SDS011;28991;52.028;5.526;2023-04-20T08:17:34;1.15;;;0.95;;
40288;SDS011;28991;52.028;5.526;2023-04-20T08:19:59;1.30;;;0.85;;
40288;SDS011;28991;52.028;5.526;2023-04-20T08:22:25;3.65;;;0.80;;
40288;SDS011;28991;52.028;5.526;2023-04-20T08:24:54;3.20;;;0.80;;
40288;SDS011;28991;52.028;5.526;2023-04-20T08:27:23;3.58;;;0.90;;
40288;SDS011;28991;52.028;5.526;2023-04-20T08:29:49;1.38;;;0.88;;
40288;SDS011;28991;52.028;5.526;2023-04-20T08:32:15;2.38;;;0.68;;
40288;SDS011;28991;52.028;5.526;2023-04-20T08:34:42;1.40;;;0.65;;
40288;SDS011;28991;52.028;5.526;2023-04-20T08:37:08;0.70;;;0.63;;
40288;SDS011;28991;52.028;5.526;2023-04-20T08:39:34;0.50;;;0.43;;
40288;SDS011;28991;52.028;5.526;2023-04-20T08:42:00;1.25;;;0.85;;
40288;SDS011;28991;52.028;5.526;2023-04-20T08:44:26;1.08;;;0.63;;
40288;SDS011;28991;52.028;5.526;2023-04-20T08:46:51;0.75;;;0.70;;
40288;SDS011;28991;52.028;5.526;2023-04-20T08:49:18;0.77;;;0.60;;
40288;SDS011;28991;52.028;5.526;2023-04-20T08:51:45;1.52;;;0.75;;
40288;SDS011;28991;52.028;5.526;2023-04-20T08:54:11;0.60;;;0.50;;
40288;SDS011;28991;52.028;5.526;2023-04-20T08:56:43;1.52;;;0.70;;
40288;SDS011;28991;52.028;5.526;2023-04-20T08:59:09;2.25;;;0.90;;
40288;SDS011;28991;52.028;5.526;2023-04-20T09:01:38;1.25;;;0.98;;
40288;SDS011;28991;52.028;5.526;2023-04-20T09:04:15;0.63;;;0.57;;
40288;SDS011;28991;52.028;5.526;2023-04-20T09:06:52;1.42;;;0.75;;
40288;SDS011;28991;52.028;5.526;2023-04-20T09:09:20;5.65;;;1.25;;
40288;SDS011;28991;52.028;5.526;2023-04-20T09:11:47;2.33;;;0.90;;
40288;SDS011;28991;52.028;5.526;2023-04-20T09:14:23;0.77;;;0.60;;
40288;SDS011;28991;52.028;5.526;2023-04-20T09:19:24;0.70;;;0.70;;
40288;SDS011;28991;52.028;5.526;2023-04-20T09:21:51;0.63;;;0.63;;
40288;SDS011;28991;52.028;5.526;2023-04-20T09:24:18;1.92;;;0.65;;
40288;SDS011;28991;52.028;5.526;2023-04-20T09:26:45;0.60;;;0.60;;
40288;SDS011;28991;52.028;5.526;2023-04-20T09:29:15;1.90;;;1.02;;
40288;SDS011;28991;52.028;5.526;2023-04-20T09:31:43;2.22;;;0.88;;
40288;SDS011;28991;52.028;5.526;2023-04-20T09:34:08;4.10;;;1.00;;
40288;SDS011;28991;52.028;5.526;2023-04-20T09:36:52;3.58;;;0.80;;
40288;SDS011;28991;52.028;5.526;2023-04-20T09:39:22;1.70;;;1.08;;
40288;SDS011;28991;52.028;5.526;2023-04-20T09:41:49;2.17;;;1.30;;
40288;SDS011;28991;52.028;5.526;2023-04-20T09:44:16;0.93;;;0.70;;
40288;SDS011;28991;52.028;5.526;2023-04-20T09:46:44;2.95;;;1.00;;
40288;SDS011;28991;52.028;5.526;2023-04-20T09:49:11;1.55;;;0.93;;
40288;SDS011;28991;52.028;5.526;2023-04-20T09:51:41;1.38;;;0.90;;
40288;SDS011;28991;52.028;5.526;2023-04-20T09:54:10;1.75;;;0.70;;
40288;SDS011;28991;52.028;5.526;2023-04-20T09:56:37;2.65;;;0.90;;
40288;SDS011;28991;52.028;5.526;2023-04-20T09:59:03;2.05;;;0.90;;
40288;SDS011;28991;52.028;5.526;2023-04-20T10:01:32;1.70;;;0.80;;
40288;SDS011;28991;52.028;5.526;2023-04-20T10:04:00;2.45;;;1.02;;
40288;SDS011;28991;52.028;5.526;2023-04-20T10:06:31;0.80;;;0.75;;
40288;SDS011;28991;52.028;5.526;2023-04-20T10:09:00;1.80;;;1.05;;
40288;SDS011;28991;52.028;5.526;2023-04-20T10:14:00;1.17;;;0.80;;
40288;SDS011;28991;52.028;5.526;2023-04-20T10:16:59;1.77;;;0.82;;
40288;SDS011;28991;52.028;5.526;2023-04-20T10:19:35;4.38;;;0.90;;
40288;SDS011;28991;52.028;5.526;2023-04-20T10:22:08;1.80;;;1.02;;
40288;SDS011;28991;52.028;5.526;2023-04-20T10:24:35;0.95;;;0.90;;
40288;SDS011;28991;52.028;5.526;2023-04-20T10:27:02;0.85;;;0.75;;
40288;SDS011;28991;52.028;5.526;2023-04-20T10:29:39;2.47;;;0.90;;
40288;SDS011;28991;52.028;5.526;2023-04-20T10:32:05;1.00;;;0.75;;
40288;SDS011;28991;52.028;5.526;2023-04-20T10:34:35;1.30;;;0.80;;
40288;SDS011;28991;52.028;5.526;2023-04-20T10:37:07;2.53;;;1.13;;
40288;SDS011;28991;52.028;5.526;2023-04-20T10:39:43;0.80;;;0.75;;
40288;SDS011;28991;52.028;5.526;2023-04-20T10:42:10;2.40;;;1.02;;
40288;SDS011;28991;52.028;5.526;2023-04-20T10:44:45;1.30;;;0.93;;
40288;SDS011;28991;52.028;5.526;2023-04-20T10:50:11;1.33;;;1.10;;
40288;SDS011;28991;52.028;5.526;2023-04-20T10:52:38;1.38;;;0.98;;
40288;SDS011;28991;52.028;5.526;2023-04-20T10:55:06;1.98;;;0.90;;
40288;SDS011;28991;52.028;5.526;2023-04-20T10:57:49;0.98;;;0.90;;
40288;SDS011;28991;52.028;5.526;2023-04-20T11:00:15;1.15;;;0.80;;
40288;SDS011;28991;52.028;5.526;2023-04-20T11:02:49;1.23;;;0.90;;
40288;SDS011;28991;52.028;5.526;2023-04-20T11:05:17;1.42;;;1.00;;
40288;SDS011;28991;52.028;5.526;2023-04-20T11:07:49;3.05;;;1.13;;
40288;SDS011;28991;52.028;5.526;2023-04-20T11:10:18;1.63;;;1.17;;
40288;SDS011;28991;52.028;5.526;2023-04-20T11:12:48;3.95;;;1.20;;
40288;SDS011;28991;52.028;5.526;2023-04-20T11:15:15;1.27;;;0.80;;
40288;SDS011;28991;52.028;5.526;2023-04-20T11:17:42;1.75;;;1.02;;
40288;SDS011;28991;52.028;5.526;2023-04-20T11:20:08;5.50;;;0.90;;
40288;SDS011;28991;52.028;5.526;2023-04-20T11:22:36;2.05;;;1.00;;
40288;SDS011;28991;52.028;5.526;2023-04-20T11:25:07;4.05;;;1.00;;
40288;SDS011;28991;52.028;5.526;2023-04-20T11:27:34;3.00;;;1.10;;
40288;SDS011;28991;52.028;5.526;2023-04-20T11:30:01;1.35;;;0.98;;
40288;SDS011;28991;52.028;5.526;2023-04-20T11:32:32;1.75;;;0.90;;
40288;SDS011;28991;52.028;5.526;2023-04-20T11:34:59;2.00;;;0.90;;
40288;SDS011;28991;52.028;5.526;2023-04-20T11:37:31;2.22;;;1.20;;
40288;SDS011;28991;52.028;5.526;2023-04-20T11:39:58;5.57;;;1.00;;
40288;SDS011;28991;52.028;5.526;2023-04-20T11:42:33;45.97;;;19.95;;
40288;SDS011;28991;52.028;5.526;2023-04-20T11:44:59;138.35;;;57.75;;
40288;SDS011;28991;52.028;5.526;2023-04-20T11:47:25;203.18;;;88.35;;
40288;SDS011;28991;52.028;5.526;2023-04-20T11:49:51;334.77;;;147.23;;
40288;SDS011;28991;52.028;5.526;2023-04-20T11:52:17;270.80;;;118.85;;
40288;SDS011;28991;52.028;5.526;2023-04-20T11:54:42;200.55;;;87.15;;
40288;SDS011;28991;52.028;5.526;2023-04-20T11:57:08;162.27;;;70.00;;
40288;SDS011;28991;52.028;5.526;2023-04-20T11:59:33;106.38;;;45.50;;
40288;SDS011;28991;52.028;5.526;2023-04-20T12:01:59;79.25;;;34.33;;
40288;SDS011;28991;52.028;5.526;2023-04-20T12:04:31;55.33;;;24.17;;
40288;SDS011;28991;52.028;5.526;2023-04-20T12:06:58;38.85;;;16.55;;
40288;SDS011;28991;52.028;5.526;2023-04-20T12:09:24;24.83;;;11.57;;
40288;SDS011;28991;52.028;5.526;2023-04-20T12:11:50;19.80;;;8.95;;
40288;SDS011;28991;52.028;5.526;2023-04-20T12:14:16;19.83;;;8.40;;
40288;SDS011;28991;52.028;5.526;2023-04-20T12:16:42;18.35;;;9.38;;
40288;SDS011;28991;52.028;5.526;2023-04-20T12:19:08;18.08;;;7.43;;
40288;SDS011;28991;52.028;5.526;2023-04-20T12:21:33;10.50;;;4.90;;
40288;SDS011;28991;52.028;5.526;2023-04-20T12:23:59;13.25;;;5.50;;
40288;SDS011;28991;52.028;5.526;2023-04-20T12:26:25;10.48;;;4.93;;
40288;SDS011;28991;52.028;5.526;2023-04-20T12:28:51;8.05;;;3.85;;
40288;SDS011;28991;52.028;5.526;2023-04-20T12:31:16;4.88;;;3.10;;
40288;SDS011;28991;52.028;5.526;2023-04-20T12:33:42;5.82;;;2.88;;
40288;SDS011;28991;52.028;5.526;2023-04-20T12:36:08;5.25;;;2.60;;
40288;SDS011;28991;52.028;5.526;2023-04-20T12:38:34;5.45;;;2.42;;
40288;SDS011;28991;52.028;5.526;2023-04-20T12:41:00;3.75;;;2.45;;
40288;SDS011;28991;52.028;5.526;2023-04-20T12:43:26;3.25;;;1.63;;
40288;SDS011;28991;52.028;5.526;2023-04-20T12:45:52;3.90;;;1.60;;
40288;SDS011;28991;52.028;5.526;2023-04-20T12:48:18;3.45;;;1.77;;
40288;SDS011;28991;52.028;5.526;2023-04-20T12:50:44;2.15;;;1.25;;
40288;SDS011;28991;52.028;5.526;2023-04-20T12:53:09;2.13;;;1.17;;
40288;SDS011;28991;52.028;5.526;2023-04-20T12:55:35;2.28;;;1.10;;
40288;SDS011;28991;52.028;5.526;2023-04-20T12:58:00;2.60;;;1.10;;
40288;SDS011;28991;52.028;5.526;2023-04-20T13:00:26;1.83;;;1.10;;
40288;SDS011;28991;52.028;5.526;2023-04-20T13:02:51;1.58;;;0.90;;
40288;SDS011;28991;52.028;5.526;2023-04-20T13:05:17;2.45;;;0.85;;
40288;SDS011;28991;52.028;5.526;2023-04-20T13:07:43;2.90;;;1.10;;
40288;SDS011;28991;52.028;5.526;2023-04-20T13:10:09;1.38;;;0.70;;
40288;SDS011;28991;52.028;5.526;2023-04-20T13:12:35;1.00;;;0.93;;
40288;SDS011;28991;52.028;5.526;2023-04-20T13:15:01;1.50;;;1.20;;
40288;SDS011;28991;52.028;5.526;2023-04-20T13:17:27;1.02;;;0.75;;
40288;SDS011;28991;52.028;5.526;2023-04-20T13:19:52;3.22;;;1.20;;
40288;SDS011;28991;52.028;5.526;2023-04-20T13:22:18;0.95;;;0.82;;
40288;SDS011;28991;52.028;5.526;2023-04-20T13:24:43;2.10;;;0.90;;
40288;SDS011;28991;52.028;5.526;2023-04-20T13:27:09;1.70;;;0.73;;
40288;SDS011;28991;52.028;5.526;2023-04-20T13:29:35;1.33;;;0.80;;
40288;SDS011;28991;52.028;5.526;2023-04-20T13:32:01;1.10;;;0.65;;
40288;SDS011;28991;52.028;5.526;2023-04-20T13:34:26;2.50;;;0.50;;
40288;SDS011;28991;52.028;5.526;2023-04-20T13:36:52;1.20;;;0.70;;
40288;SDS011;28991;52.028;5.526;2023-04-20T13:39:18;0.95;;;0.80;;
40288;SDS011;28991;52.028;5.526;2023-04-20T13:41:45;2.92;;;1.02;;
40288;SDS011;28991;52.028;5.526;2023-04-20T13:44:13;0.77;;;0.70;;
40288;SDS011;28991;52.028;5.526;2023-04-20T13:46:43;0.85;;;0.80;;
40288;SDS011;28991;52.028;5.526;2023-04-20T13:49:10;0.80;;;0.80;;
40288;SDS011;28991;52.028;5.526;2023-04-20T13:51:37;1.70;;;0.75;;
40288;SDS011;28991;52.028;5.526;2023-04-20T13:54:03;0.85;;;0.75;;
40288;SDS011;28991;52.028;5.526;2023-04-20T13:56:29;0.70;;;0.70;;
40288;SDS011;28991;52.028;5.526;2023-04-20T13:58:55;1.58;;;1.00;;
40288;SDS011;28991;52.028;5.526;2023-04-20T14:01:21;0.90;;;0.85;;
40288;SDS011;28991;52.028;5.526;2023-04-20T14:03:47;1.73;;;0.80;;
40288;SDS011;28991;52.028;5.526;2023-04-20T14:06:12;1.00;;;0.70;;
40288;SDS011;28991;52.028;5.526;2023-04-20T14:08:38;1.23;;;1.00;;
40288;SDS011;28991;52.028;5.526;2023-04-20T14:11:03;0.82;;;0.70;;
40288;SDS011;28991;52.028;5.526;2023-04-20T14:13:29;0.75;;;0.75;;
40288;SDS011;28991;52.028;5.526;2023-04-20T14:15:55;0.82;;;0.70;;
40288;SDS011;28991;52.028;5.526;2023-04-20T14:18:21;0.77;;;0.70;;
40288;SDS011;28991;52.028;5.526;2023-04-20T14:20:46;0.88;;;0.75;;
40288;SDS011;28991;52.028;5.526;2023-04-20T14:23:16;1.70;;;1.13;;
40288;SDS011;28991;52.028;5.526;2023-04-20T14:25:42;1.02;;;0.70;;
40288;SDS011;28991;52.028;5.526;2023-04-20T14:28:07;1.42;;;0.70;;
40288;SDS011;28991;52.028;5.526;2023-04-20T14:30:33;1.30;;;0.65;;
40288;SDS011;28991;52.028;5.526;2023-04-20T14:32:59;0.65;;;0.65;;
40288;SDS011;28991;52.028;5.526;2023-04-20T14:35:25;0.60;;;0.60;;
40288;SDS011;28991;52.028;5.526;2023-04-20T14:37:51;0.70;;;0.70;;
40288;SDS011;28991;52.028;5.526;2023-04-20T14:40:18;0.82;;;0.82;;
40288;SDS011;28991;52.028;5.526;2023-04-20T14:42:45;0.75;;;0.75;;
40288;SDS011;28991;52.028;5.526;2023-04-20T14:45:11;0.70;;;0.60;;
40288;SDS011;28991;52.028;5.526;2023-04-20T14:47:37;0.95;;;0.63;;
40288;SDS011;28991;52.028;5.526;2023-04-20T14:50:04;0.47;;;0.47;;